Augusta, Ohio
Current Conditions -  °F | °C
As of 10:53 AM on Friday 24 Oct 2014 (Local Time) from KPHD Reporting Station
Haze Haze  
Wind Chill:   Ceiling: 200
Heat Index:   Visibility: 1.5mi
Dew Point:   Wind: 5mph
Humidity: 93%   Direction: 120°ESE
Pressure: 30.12"   Gusts: NA
Location:  40.69°N, 81.02°W
Report Text: KPHD 241453Z AUTO 12004KT 1 1/2SM BR BKN002 07/06 A3012 RMK AO2 VIS 1 1/4V2 1/2 SLP206 T00670056 50000
Loading
Personal Weather Stations






























Interactive Weather Map
Tropical Storm Tracking
New forecast layout! Learn more

10-Day Weather Forecast

Advertisements
Track Severe Weather on mobile